Time;durP1;ratioP1;P1;durP2;ratioP2;P2;SDS_P1;SDS_P2;PMS_P1;PMS_P2;Temp;Humidity;BMP_temperature;BMP_pressure;BME280_temperature;BME280_humidity;BME280_pressure;Samples;Min_cycle;Max_cycle;Signal;HPM_P1;HPM_P2
2023/04/13 00:00:12;;;;;;;7.90;1.73;;;;;;;;;;5013775;28;20030;-80
2023/04/13 00:02:45;;;;;;;8.52;1.30;;;;;;;;;;5005283;28;20042;-80
2023/04/13 00:05:10;;;;;;;18.23;1.93;;;;;;;;;;5008739;28;20033;-78
2023/04/13 00:07:42;;;;;;;7.80;1.40;;;;;;;;;;5020498;28;20542;-81
2023/04/13 00:10:17;;;;;;;10.27;1.63;;;;;;;;;;5011069;28;20041;-81
2023/04/13 00:12:49;;;;;;;6.07;1.13;;;;;;;;;;5018224;28;20030;-80
2023/04/13 00:15:24;;;;;;;18.23;1.77;;;;;;;;;;5001834;28;20046;-80
2023/04/13 00:17:57;;;;;;;8.27;0.80;;;;;;;;;;5011372;28;20069;-81
2023/04/13 00:20:22;;;;;;;4.47;2.10;;;;;;;;;;5009346;28;20042;-80
2023/04/13 00:22:54;;;;;;;6.25;1.63;;;;;;;;;;5011458;28;20030;-80
2023/04/13 00:25:26;;;;;;;9.75;1.38;;;;;;;;;;5011633;28;20045;-80
2023/04/13 00:27:52;;;;;;;10.95;2.13;;;;;;;;;;5010974;28;20034;-80
2023/04/13 00:30:24;;;;;;;10.07;1.60;;;;;;;;;;5010936;28;20060;-80
2023/04/13 00:32:56;;;;;;;11.75;1.77;;;;;;;;;;5010795;28;20494;-80
2023/04/13 00:35:25;;;;;;;8.40;1.83;;;;;;;;;;5011069;28;20045;-80
2023/04/13 00:37:59;;;;;;;13.02;1.40;;;;;;;;;;5011265;28;20018;-80
2023/04/13 00:40:31;;;;;;;;;;;;;;;;;;5011350;28;20034;-80
2023/04/13 00:42:57;;;;;;;8.30;1.13;;;;;;;;;;5045040;28;20199;-80
2023/04/13 00:45:29;;;;;;;7.35;1.42;;;;;;;;;;5013022;28;20060;-79
2023/04/13 00:48:01;;;;;;;9.88;1.33;;;;;;;;;;5013284;28;20038;-81
2023/04/13 00:50:27;;;;;;;7.60;1.13;;;;;;;;;;5008602;28;20034;-80
2023/04/13 00:52:59;;;;;;;9.50;1.00;;;;;;;;;;4988821;28;20355;-80
2023/04/13 00:55:31;;;;;;;10.52;1.30;;;;;;;;;;5011928;28;20088;-79
2023/04/13 00:57:58;;;;;;;12.40;1.75;;;;;;;;;;5012485;28;20072;-80
2023/04/13 01:00:30;;;;;;;9.23;1.48;;;;;;;;;;5028136;28;20029;-80
2023/04/13 01:03:02;;;;;;;8.15;1.55;;;;;;;;;;5014525;28;20120;-81
2023/04/13 01:05:41;;;;;;;12.88;1.50;;;;;;;;;;5015755;28;20124;-80
2023/04/13 01:08:19;;;;;;;15.48;1.20;;;;;;;;;;5033702;28;20112;-80
2023/04/13 01:11:10;;;;;;;5.47;1.38;;;;;;;;;;5011064;28;20444;-80
2023/04/13 01:13:51;;;;;;;15.02;1.67;;;;;;;;;;5020515;28;20037;-80
2023/04/13 01:16:23;;;;;;;11.68;1.65;;;;;;;;;;5040088;28;20045;-80
2023/04/13 01:18:55;;;;;;;6.32;1.20;;;;;;;;;;5016656;28;20041;-80
2023/04/13 01:21:24;;;;;;;4.78;1.08;;;;;;;;;;5015312;28;20441;-80
2023/04/13 01:24:08;;;;;;;13.70;1.60;;;;;;;;;;5015361;28;20433;-80
2023/04/13 01:27:10;;;;;;;6.97;0.80;;;;;;;;;;5016485;28;20104;-80
2023/04/13 01:29:43;;;;;;;7.82;1.10;;;;;;;;;;5005052;28;20069;-79
2023/04/13 01:32:16;;;;;;;5.47;1.67;;;;;;;;;;5018537;28;20509;-80
2023/04/13 01:34:41;;;;;;;10.73;1.38;;;;;;;;;;5016343;28;20088;-80
2023/04/13 01:37:16;;;;;;;8.32;1.17;;;;;;;;;;5016444;28;20026;-81
2023/04/13 01:39:47;;;;;;;6.55;1.45;;;;;;;;;;5015876;28;20045;-80
2023/04/13 01:42:13;;;;;;;10.43;1.48;;;;;;;;;;5016490;28;20065;-80
2023/04/13 01:44:45;;;;;;;7.50;1.55;;;;;;;;;;5016145;28;20069;-80
2023/04/13 01:47:19;;;;;;;10.93;1.40;;;;;;;;;;5030752;28;20042;-80
2023/04/13 01:49:59;;;;;;;8.50;1.02;;;;;;;;;;5047897;28;20088;-80
2023/04/13 01:52:32;;;;;;;3.72;1.08;;;;;;;;;;5032488;28;20056;-80
2023/04/13 01:55:06;;;;;;;4.47;1.10;;;;;;;;;;5047906;28;20046;-80
2023/04/13 01:57:39;;;;;;;;;;;;;;;;;;5014700;28;20509;-80
2023/04/13 02:00:15;;;;;;;4.47;1.10;;;;;;;;;;5015396;28;20342;-81
2023/04/13 02:02:47;;;;;;;4.90;1.10;;;;;;;;;;5010489;28;20124;-80
2023/04/13 02:05:13;;;;;;;6.80;1.13;;;;;;;;;;5012535;28;20120;-80
2023/04/13 02:07:45;;;;;;;8.75;1.25;;;;;;;;;;5014790;28;20134;-80
2023/04/13 02:10:17;;;;;;;9.18;1.50;;;;;;;;;;5045972;28;20048;-80
2023/04/13 02:12:43;;;;;;;8.73;1.40;;;;;;;;;;5019534;28;20044;-80
2023/04/13 02:15:15;;;;;;;9.82;1.40;;;;;;;;;;5014790;28;20030;-80
2023/04/13 02:17:47;;;;;;;15.05;1.98;;;;;;;;;;5015146;28;20449;-80
2023/04/13 02:20:13;;;;;;;6.55;1.23;;;;;;;;;;5015537;28;20041;-80
2023/04/13 02:22:45;;;;;;;8.77;1.52;;;;;;;;;;5016760;28;20040;-80
2023/04/13 02:25:17;;;;;;;3.85;0.95;;;;;;;;;;5003267;28;20084;-80
2023/04/13 02:27:43;;;;;;;8.48;0.90;;;;;;;;;;5015079;28;20130;-80
2023/04/13 02:30:16;;;;;;;10.50;1.15;;;;;;;;;;5011518;28;20449;-80
2023/04/13 02:32:48;;;;;;;8.05;1.67;;;;;;;;;;5010932;28;20038;-80
2023/04/13 02:35:14;;;;;;;5.82;1.08;;;;;;;;;;5015491;28;20042;-81
2023/04/13 02:37:47;;;;;;;10.98;1.70;;;;;;;;;;5015087;28;20133;-80
2023/04/13 02:40:19;;;;;;;8.60;1.25;;;;;;;;;;5015351;28;20042;-80
2023/04/13 02:42:45;;;;;;;12.43;1.40;;;;;;;;;;5015117;28;20043;-80
2023/04/13 02:45:17;;;;;;;11.18;1.58;;;;;;;;;;5015250;28;20112;-80
2023/04/13 02:47:49;;;;;;;6.15;0.88;;;;;;;;;;5018164;28;20049;-80
2023/04/13 02:50:15;;;;;;;10.02;2.17;;;;;;;;;;5017591;28;20444;-80
2023/04/13 02:52:46;;;;;;;3.90;1.55;;;;;;;;;;4998398;28;20033;-79
2023/04/13 02:55:19;;;;;;;3.42;1.00;;;;;;;;;;5012707;28;20399;-80
2023/04/13 02:57:45;;;;;;;7.13;1.25;;;;;;;;;;5022392;28;20108;-81
2023/04/13 03:00:17;;;;;;;14.38;1.40;;;;;;;;;;5016265;28;20129;-80
2023/04/13 03:02:50;;;;;;;5.68;2.22;;;;;;;;;;5018597;28;20041;-80
2023/04/13 03:05:15;;;;;;;5.70;1.02;;;;;;;;;;5020075;28;20041;-80
2023/04/13 03:07:47;;;;;;;11.85;1.30;;;;;;;;;;5013613;28;20379;-79
2023/04/13 03:10:20;;;;;;;9.18;1.30;;;;;;;;;;5015967;28;20057;-80
2023/04/13 03:12:46;;;;;;;6.85;1.25;;;;;;;;;;5018452;28;20124;-80
2023/04/13 03:15:18;;;;;;;19.55;1.67;;;;;;;;;;5014562;28;20509;-81
2023/04/13 03:17:50;;;;;;;8.38;1.17;;;;;;;;;;5019316;28;20121;-81
2023/04/13 03:20:19;;;;;;;10.43;1.23;;;;;;;;;;5021904;28;20125;-81
2023/04/13 03:22:52;;;;;;;8.20;1.63;;;;;;;;;;5018124;28;20018;-80
2023/04/13 03:25:24;;;;;;;5.95;1.35;;;;;;;;;;5014395;28;20045;-80
2023/04/13 03:27:50;;;;;;;10.73;1.40;;;;;;;;;;5016739;28;20033;-80
2023/04/13 03:30:22;;;;;;;10.73;2.05;;;;;;;;;;5014881;28;20041;-80
2023/04/13 03:32:54;;;;;;;9.27;1.10;;;;;;;;;;5018609;28;20362;-80
2023/04/13 03:35:19;;;;;;;13.13;2.15;;;;;;;;;;5018129;28;20116;-80
2023/04/13 03:37:51;;;;;;;8.85;1.15;;;;;;;;;;5024105;28;20116;-79
2023/04/13 03:40:23;;;;;;;8.57;1.40;;;;;;;;;;5015008;28;20046;-80
2023/04/13 03:42:48;;;;;;;10.18;1.42;;;;;;;;;;5021664;28;20100;-80
2023/04/13 03:45:20;;;;;;;12.38;1.45;;;;;;;;;;5018419;28;20037;-80
2023/04/13 03:47:52;;;;;;;13.18;1.60;;;;;;;;;;5022675;28;20038;-79
2023/04/13 03:50:17;;;;;;;9.82;1.40;;;;;;;;;;5014065;28;20046;-80
2023/04/13 03:52:49;;;;;;;8.23;1.52;;;;;;;;;;5023062;28;20108;-81
2023/04/13 03:55:22;;;;;;;7.70;1.50;;;;;;;;;;5022189;28;20497;-80
2023/04/13 03:57:47;;;;;;;4.22;1.30;;;;;;;;;;5020690;28;20128;-79
2023/04/13 04:00:19;;;;;;;11.95;1.20;;;;;;;;;;5017780;28;20627;-81
2023/04/13 04:02:51;;;;;;;10.70;1.50;;;;;;;;;;5021270;28;20038;-80
2023/04/13 04:05:17;;;;;;;13.70;2.78;;;;;;;;;;5030930;28;20048;-81
2023/04/13 04:07:49;;;;;;;9.20;1.80;;;;;;;;;;5023598;28;20049;-81
2023/04/13 04:10:21;;;;;;;13.10;1.92;;;;;;;;;;5015039;28;20042;-80
2023/04/13 04:12:47;;;;;;;11.68;1.15;;;;;;;;;;5017863;28;20481;-80
2023/04/13 04:15:18;;;;;;;12.27;1.90;;;;;;;;;;5019204;28;20040;-80
2023/04/13 04:17:50;;;;;;;19.80;2.40;;;;;;;;;;5013400;28;20077;-80
2023/04/13 04:20:16;;;;;;;13.70;1.90;;;;;;;;;;5017089;28;20038;-79
2023/04/13 04:22:48;;;;;;;9.95;1.88;;;;;;;;;;5014457;28;20427;-80
2023/04/13 04:25:26;;;;;;;12.90;1.58;;;;;;;;;;5013408;28;20065;-80
2023/04/13 04:28:01;;;;;;;9.73;1.52;;;;;;;;;;5015213;28;20096;-80
2023/04/13 04:30:32;;;;;;;6.93;1.83;;;;;;;;;;5027639;28;20030;-79
2023/04/13 04:33:07;;;;;;;14.27;2.28;;;;;;;;;;5009546;28;20093;-80
2023/04/13 04:35:48;;;;;;;19.02;2.30;;;;;;;;;;5032613;28;20110;-79
2023/04/13 04:38:23;;;;;;;6.28;2.33;;;;;;;;;;5013071;28;20034;-80
2023/04/13 04:40:56;;;;;;;9.75;1.25;;;;;;;;;;5020931;28;20069;-79
2023/04/13 04:43:28;;;;;;;14.70;1.65;;;;;;;;;;5024707;28;20405;-80
2023/04/13 04:45:56;;;;;;;4.35;1.52;;;;;;;;;;5017228;28;20065;-80
2023/04/13 04:48:36;;;;;;;17.17;1.77;;;;;;;;;;5019458;28;20022;-80
2023/04/13 04:51:01;;;;;;;11.57;1.63;;;;;;;;;;5019103;28;20041;-80
2023/04/13 04:53:27;;;;;;;11.40;1.90;;;;;;;;;;5018930;28;20044;-80
2023/04/13 04:56:05;;;;;;;7.40;2.25;;;;;;;;;;5016952;28;20091;-80
2023/04/13 04:58:30;;;;;;;18.92;2.33;;;;;;;;;;5018856;28;20489;-79
2023/04/13 05:00:56;;;;;;;10.10;2.35;;;;;;;;;;5017475;28;20034;-80
2023/04/13 05:03:34;;;;;;;18.52;2.22;;;;;;;;;;5020331;28;20029;-80
2023/04/13 05:06:00;;;;;;;7.70;1.80;;;;;;;;;;5017797;28;20069;-80
2023/04/13 05:08:27;;;;;;;13.43;2.15;;;;;;;;;;5019863;28;20030;-79
2023/04/13 05:11:06;;;;;;;11.38;1.75;;;;;;;;;;5022644;28;20401;-79
2023/04/13 05:13:31;;;;;;;10.88;1.50;;;;;;;;;;5018824;28;20037;-79
2023/04/13 05:15:57;;;;;;;8.38;1.42;;;;;;;;;;5021166;28;20040;-80
2023/04/13 05:18:36;;;;;;;9.35;2.17;;;;;;;;;;5024914;28;20046;-80
2023/04/13 05:21:01;;;;;;;11.90;1.58;;;;;;;;;;5047844;28;20125;-81
2023/04/13 05:23:27;;;;;;;6.00;1.17;;;;;;;;;;5022715;28;20164;-79
2023/04/13 05:26:05;;;;;;;8.55;1.52;;;;;;;;;;5016723;28;20382;-80
2023/04/13 05:28:32;;;;;;;10.65;2.47;;;;;;;;;;5020027;28;20029;-79
2023/04/13 05:31:19;;;;;;;20.20;2.03;;;;;;;;;;5047392;28;20026;-80
2023/04/13 05:33:45;;;;;;;13.00;2.30;;;;;;;;;;5017513;28;20040;-80
2023/04/13 05:36:10;;;;;;;16.15;1.98;;;;;;;;;;5026054;28;20026;-80
2023/04/13 05:38:49;;;;;;;11.75;2.40;;;;;;;;;;5017468;28;20084;-80
2023/04/13 05:41:14;;;;;;;13.57;1.75;;;;;;;;;;5019537;28;20049;-80
2023/04/13 05:43:40;;;;;;;13.48;1.77;;;;;;;;;;5017331;28;20374;-80
2023/04/13 05:46:18;;;;;;;12.48;1.75;;;;;;;;;;5016355;28;20466;-80
2023/04/13 05:48:43;;;;;;;15.27;2.65;;;;;;;;;;5018068;28;20489;-80
2023/04/13 05:51:29;;;;;;;9.13;1.80;;;;;;;;;;5024009;28;20033;-79
2023/04/13 05:53:55;;;;;;;9.15;1.75;;;;;;;;;;5018061;28;20104;-80
2023/04/13 05:56:34;;;;;;;9.23;1.52;;;;;;;;;;5014792;28;20037;-79
2023/04/13 05:58:59;;;;;;;12.75;1.70;;;;;;;;;;5018774;28;20041;-79
2023/04/13 06:01:25;;;;;;;15.95;2.00;;;;;;;;;;5018623;28;20034;-79
2023/04/13 06:04:04;;;;;;;16.10;2.50;;;;;;;;;;5020230;28;20037;-81
2023/04/13 06:06:30;;;;;;;8.65;2.53;;;;;;;;;;5031032;28;20058;-80
2023/04/13 06:08:55;;;;;;;9.93;1.67;;;;;;;;;;5016865;28;20034;-80
2023/04/13 06:11:34;;;;;;;13.43;2.72;;;;;;;;;;5032583;28;20041;-80
2023/04/13 06:14:01;;;;;;;6.10;1.80;;;;;;;;;;5016931;28;20060;-81
2023/04/13 06:16:26;;;;;;;8.85;2.15;;;;;;;;;;5020465;28;20367;-80
2023/04/13 06:19:05;;;;;;;12.85;2.10;;;;;;;;;;5016218;28;20045;-80
2023/04/13 06:21:30;;;;;;;10.75;2.50;;;;;;;;;;5016688;28;20508;-80
2023/04/13 06:23:56;;;;;;;12.73;1.98;;;;;;;;;;5019938;28;20116;-81
2023/04/13 06:26:34;;;;;;;14.15;2.15;;;;;;;;;;5014255;28;20029;-80
2023/04/13 06:29:01;;;;;;;7.95;2.28;;;;;;;;;;5022791;28;20048;-81
2023/04/13 06:31:26;;;;;;;9.60;1.70;;;;;;;;;;5024782;28;20040;-80
2023/04/13 06:34:06;;;;;;;10.05;1.30;;;;;;;;;;5020356;28;20033;-81
2023/04/13 06:36:31;;;;;;;13.18;2.63;;;;;;;;;;5021785;28;20046;-80
2023/04/13 06:38:57;;;;;;;7.70;1.85;;;;;;;;;;5018962;28;20453;-82
2023/04/13 06:41:36;;;;;;;10.25;1.90;;;;;;;;;;5016457;28;20081;-82
2023/04/13 06:44:03;;;;;;;11.27;2.30;;;;;;;;;;5016063;28;20048;-81
2023/04/13 06:46:28;;;;;;;12.85;2.65;;;;;;;;;;5015240;28;20038;-82
2023/04/13 06:49:08;;;;;;;10.40;1.48;;;;;;;;;;5023874;28;20440;-82
2023/04/13 06:51:33;;;;;;;11.02;2.08;;;;;;;;;;5015697;28;20038;-82
2023/04/13 06:53:59;;;;;;;9.45;1.90;;;;;;;;;;5019102;28;20385;-82
2023/04/13 06:56:37;;;;;;;10.55;1.60;;;;;;;;;;5013257;28;20442;-82
2023/04/13 06:59:02;;;;;;;9.52;1.90;;;;;;;;;;5011430;28;20092;-83
2023/04/13 07:01:28;;;;;;;7.30;1.75;;;;;;;;;;5015505;28;20037;-83
2023/04/13 07:04:06;;;;;;;13.00;2.05;;;;;;;;;;5014780;28;20036;-83
2023/04/13 07:06:32;;;;;;;9.45;1.60;;;;;;;;;;5013120;28;20069;-83
2023/04/13 07:08:58;;;;;;;9.98;2.00;;;;;;;;;;5014801;28;20034;-82
2023/04/13 07:11:37;;;;;;;10.18;2.00;;;;;;;;;;5014452;28;20033;-83
2023/04/13 07:14:02;;;;;;;9.75;2.05;;;;;;;;;;5014639;28;20095;-82
2023/04/13 07:16:28;;;;;;;8.65;1.80;;;;;;;;;;5015465;28;20026;-83
2023/04/13 07:19:07;;;;;;;7.75;2.10;;;;;;;;;;5017376;28;20180;-83
2023/04/13 07:21:33;;;;;;;7.97;1.60;;;;;;;;;;5013624;28;20490;-82
2023/04/13 07:23:58;;;;;;;10.02;1.67;;;;;;;;;;5011356;28;20037;-84
2023/04/13 07:26:37;;;;;;;11.20;2.33;;;;;;;;;;5009629;28;20048;-83
2023/04/13 07:29:02;;;;;;;7.45;1.60;;;;;;;;;;5013391;28;20046;-84
2023/04/13 07:31:28;;;;;;;8.10;2.13;;;;;;;;;;5009739;28;20121;-84
2023/04/13 07:34:06;;;;;;;8.43;1.98;;;;;;;;;;5018229;28;20052;-82
2023/04/13 07:36:32;;;;;;;6.50;1.73;;;;;;;;;;5006912;28;20140;-84
2023/04/13 07:38:57;;;;;;;10.43;1.85;;;;;;;;;;5013990;28;20525;-84
2023/04/13 07:41:36;;;;;;;4.32;1.42;;;;;;;;;;5013619;28;20040;-85
2023/04/13 07:44:05;;;;;;;9.88;1.92;;;;;;;;;;5017197;28;20038;-85
2023/04/13 07:46:43;;;;;;;11.95;2.08;;;;;;;;;;5033488;28;20108;-82
2023/04/13 07:49:08;;;;;;;10.68;1.55;;;;;;;;;;5016524;28;20046;-82
2023/04/13 07:51:34;;;;;;;9.00;1.80;;;;;;;;;;5014574;28;20462;-82
2023/04/13 07:54:12;;;;;;;6.45;1.85;;;;;;;;;;5009170;28;20116;-84
2023/04/13 07:56:37;;;;;;;9.32;1.90;;;;;;;;;;5006882;28;20076;-85
2023/04/13 07:59:03;;;;;;;7.82;1.90;;;;;;;;;;5011294;28;20038;-85
2023/04/13 08:01:41;;;;;;;6.32;1.60;;;;;;;;;;5040373;28;20033;-83
2023/04/13 08:04:06;;;;;;;8.05;1.90;;;;;;;;;;5014462;28;20068;-79
2023/04/13 08:06:33;;;;;;;8.00;1.33;;;;;;;;;;5015154;28;20108;-84
2023/04/13 08:09:12;;;;;;;5.97;1.73;;;;;;;;;;5018567;28;20383;-85
2023/04/13 08:11:37;;;;;;;10.20;1.80;;;;;;;;;;5011103;28;20462;-84
2023/04/13 08:14:03;;;;;;;9.77;2.22;;;;;;;;;;5011362;28;20088;-85
2023/04/13 08:16:41;;;;;;;9.02;1.70;;;;;;;;;;5009748;28;20084;-85
2023/04/13 08:19:07;;;;;;;11.25;1.83;;;;;;;;;;5021670;28;20507;-85
2023/04/13 08:21:36;;;;;;;6.25;1.80;;;;;;;;;;5016697;28;20034;-84
2023/04/13 08:24:14;;;;;;;5.13;1.92;;;;;;;;;;5018234;28;20029;-83
2023/04/13 08:26:39;;;;;;;6.70;1.58;;;;;;;;;;5016394;28;20046;-85
2023/04/13 08:29:05;;;;;;;8.23;2.38;;;;;;;;;;5017437;28;20096;-83
2023/04/13 08:31:43;;;;;;;7.13;1.70;;;;;;;;;;5017954;28;20083;-82
2023/04/13 08:34:10;;;;;;;6.85;1.80;;;;;;;;;;5021213;28;20030;-83
2023/04/13 08:36:36;;;;;;;10.70;1.60;;;;;;;;;;5013428;28;20030;-82
2023/04/13 08:39:15;;;;;;;10.10;1.85;;;;;;;;;;5018780;28;20021;-81
2023/04/13 08:41:45;;;;;;;8.32;1.92;;;;;;;;;;5018521;28;20033;-80
2023/04/13 08:44:24;;;;;;;5.93;1.60;;;;;;;;;;5003909;28;20044;-82
2023/04/13 08:46:50;;;;;;;4.60;1.52;;;;;;;;;;5008693;28;20494;-86
2023/04/13 08:49:16;;;;;;;6.85;1.65;;;;;;;;;;5009622;28;20079;-84
2023/04/13 08:51:54;;;;;;;6.45;1.40;;;;;;;;;;5008873;28;20113;-83
2023/04/13 08:54:19;;;;;;;6.93;1.45;;;;;;;;;;5010192;28;20045;-84
2023/04/13 08:56:45;;;;;;;6.53;1.50;;;;;;;;;;5009229;28;20033;-83
2023/04/13 08:59:24;;;;;;;6.57;1.50;;;;;;;;;;5010582;28;20450;-83
2023/04/13 09:01:50;;;;;;;6.22;1.30;;;;;;;;;;5031641;28;20044;-83
2023/04/13 09:04:33;;;;;;;7.90;1.40;;;;;;;;;;5012031;28;20060;-84
2023/04/13 09:06:59;;;;;;;8.23;1.60;;;;;;;;;;4998824;28;20160;-76
2023/04/13 09:09:26;;;;;;;11.35;1.95;;;;;;;;;;5041637;28;20033;-83
2023/04/13 09:12:04;;;;;;;9.10;1.83;;;;;;;;;;5009761;28;20034;-83
2023/04/13 09:14:30;;;;;;;7.53;1.63;;;;;;;;;;5009310;28;20049;-84
2023/04/13 09:16:56;;;;;;;6.70;1.80;;;;;;;;;;5012628;28;20145;-84
2023/04/13 09:19:36;;;;;;;9.18;2.13;;;;;;;;;;5013308;28;20030;-84
2023/04/13 09:22:12;;;;;;;5.63;1.40;;;;;;;;;;5015484;28;20042;-86
2023/04/13 09:24:51;;;;;;;7.18;1.35;;;;;;;;;;5013968;28;20030;-86
2023/04/13 09:27:22;;;;;;;5.60;1.35;;;;;;;;;;5015799;28;20445;-84
2023/04/13 09:30:02;;;;;;;8.25;1.85;;;;;;;;;;5018894;28;20062;-85
2023/04/13 09:32:27;;;;;;;7.63;1.63;;;;;;;;;;5016432;28;20520;-85
2023/04/13 09:35:16;;;;;;;3.30;1.27;;;;;;;;;;5014898;28;20041;-83
2023/04/13 09:37:43;;;;;;;10.90;1.50;;;;;;;;;;5015756;28;20251;-84
2023/04/13 09:40:12;;;;;;;6.38;1.58;;;;;;;;;;5016393;28;20048;-80
2023/04/13 09:43:00;;;;;;;10.68;2.45;;;;;;;;;;5014849;28;20061;-84
2023/04/13 09:45:33;;;;;;;6.93;1.52;;;;;;;;;;5016024;28;20045;-84
2023/04/13 09:48:24;;;;;;;11.10;1.73;;;;;;;;;;5037014;28;20037;-84
2023/04/13 09:51:00;;;;;;;5.68;1.20;;;;;;;;;;5014655;28;20044;-83
2023/04/13 09:53:50;;;;;;;5.32;1.45;;;;;;;;;;5015870;28;20037;-83
2023/04/13 09:56:16;;;;;;;7.50;1.20;;;;;;;;;;5015878;28;20044;-83
2023/04/13 09:58:47;;;;;;;5.45;1.13;;;;;;;;;;5017158;28;20120;-83
2023/04/13 10:01:19;;;;;;;4.82;1.30;;;;;;;;;;5016764;28;20038;-82
2023/04/13 10:03:45;;;;;;;6.75;1.30;;;;;;;;;;5018428;28;20061;-82
2023/04/13 10:06:19;;;;;;;8.20;1.80;;;;;;;;;;5021818;28;20505;-85
2023/04/13 10:08:50;;;;;;;;;;;;;;;;;;5021409;28;20533;-82
2023/04/13 10:11:16;;;;;;;6.60;1.58;;;;;;;;;;5023001;28;19918;-85
2023/04/13 10:14:08;;;;;;;5.90;1.42;;;;;;;;;;5017754;28;20092;-79
2023/04/13 10:16:52;;;;;;;6.55;1.52;;;;;;;;;;5015795;28;20046;-82
2023/04/13 10:19:36;;;;;;;5.88;1.42;;;;;;;;;;5022983;28;20034;-83
2023/04/13 10:22:02;;;;;;;9.50;1.88;;;;;;;;;;5018138;28;20095;-83
2023/04/13 10:24:33;;;;;;;6.00;1.40;;;;;;;;;;5039162;28;20091;-81
2023/04/13 10:27:16;;;;;;;5.03;1.25;;;;;;;;;;5011956;28;20535;-84
2023/04/13 10:29:48;;;;;;;5.93;1.20;;;;;;;;;;5045186;28;20077;-83
2023/04/13 10:32:28;;;;;;;8.90;1.40;;;;;;;;;;5032341;28;20108;-84
2023/04/13 10:35:08;;;;;;;7.30;1.20;;;;;;;;;;5035266;28;20132;-84
2023/04/13 10:37:42;;;;;;;7.82;1.10;;;;;;;;;;5024357;28;20044;-83
2023/04/13 10:40:15;;;;;;;6.93;1.20;;;;;;;;;;5016693;28;20088;-83
2023/04/13 10:42:52;;;;;;;5.07;1.00;;;;;;;;;;5024046;28;20385;-83
2023/04/13 10:45:26;;;;;;;2.55;0.95;;;;;;;;;;5016391;28;20034;-83
2023/04/13 10:47:59;;;;;;;8.70;1.40;;;;;;;;;;5014179;28;20041;-82
2023/04/13 10:50:31;;;;;;;6.43;1.15;;;;;;;;;;5032410;28;20042;-82
2023/04/13 10:53:09;;;;;;;5.68;1.10;;;;;;;;;;5025096;28;20040;-83
2023/04/13 10:55:41;;;;;;;4.30;1.00;;;;;;;;;;5015570;28;20038;-82
2023/04/13 10:58:21;;;;;;;6.45;1.17;;;;;;;;;;5014416;28;20437;-82
2023/04/13 11:00:54;;;;;;;4.63;1.20;;;;;;;;;;5014748;28;20049;-82
2023/04/13 11:03:19;;;;;;;3.67;0.77;;;;;;;;;;5013691;28;20433;-82
2023/04/13 11:06:01;;;;;;;3.63;1.10;;;;;;;;;;5014993;28;20087;-82
2023/04/13 11:08:35;;;;;;;4.65;0.80;;;;;;;;;;5013659;28;20446;-82
2023/04/13 11:11:00;;;;;;;2.70;0.80;;;;;;;;;;5013437;28;20475;-82
2023/04/13 11:13:32;;;;;;;4.20;1.02;;;;;;;;;;5015021;28;20092;-82
2023/04/13 11:16:05;;;;;;;5.85;1.15;;;;;;;;;;5014776;28;20133;-82
2023/04/13 11:18:31;;;;;;;5.57;1.17;;;;;;;;;;5014848;28;20092;-82
2023/04/13 11:21:03;;;;;;;5.80;1.10;;;;;;;;;;5025791;28;20330;-82
2023/04/13 11:23:36;;;;;;;5.15;1.40;;;;;;;;;;5014849;28;20057;-82
2023/04/13 11:26:03;;;;;;;5.03;1.38;;;;;;;;;;5014660;28;20053;-82
2023/04/13 11:28:54;;;;;;;6.57;1.20;;;;;;;;;;5014430;28;20048;-82
2023/04/13 11:31:20;;;;;;;4.15;1.05;;;;;;;;;;5014693;28;20133;-82
2023/04/13 11:34:04;;;;;;;4.82;1.00;;;;;;;;;;5014198;28;20501;-81
2023/04/13 11:36:29;;;;;;;7.32;1.25;;;;;;;;;;5014243;28;20482;-82
2023/04/13 11:39:08;;;;;;;6.57;1.63;;;;;;;;;;5014048;28;20048;-81
2023/04/13 11:41:41;;;;;;;4.53;0.77;;;;;;;;;;5013379;28;20045;-82
2023/04/13 11:44:22;;;;;;;3.10;1.25;;;;;;;;;;5014167;28;20462;-80
2023/04/13 11:46:51;;;;;;;8.38;2.28;;;;;;;;;;5028613;28;20072;-81
2023/04/13 11:49:29;;;;;;;2.50;0.75;;;;;;;;;;5014621;28;20036;-82
2023/04/13 11:51:55;;;;;;;2.95;0.80;;;;;;;;;;5013938;28;20073;-78
2023/04/13 11:54:21;;;;;;;4.60;1.10;;;;;;;;;;5013927;28;20065;-82
2023/04/13 11:57:00;;;;;;;3.63;1.08;;;;;;;;;;5014198;28;20045;-82
2023/04/13 11:59:26;;;;;;;7.35;1.00;;;;;;;;;;5012930;28;20048;-81
2023/04/13 12:01:52;;;;;;;5.80;1.35;;;;;;;;;;5013892;28;20068;-81
2023/04/13 12:04:31;;;;;;;3.22;0.80;;;;;;;;;;5014192;28;20065;-82
2023/04/13 12:06:57;;;;;;;5.90;1.10;;;;;;;;;;5012536;28;20100;-82
2023/04/13 12:09:22;;;;;;;5.10;0.90;;;;;;;;;;5013540;28;20482;-81
2023/04/13 12:12:01;;;;;;;3.30;1.10;;;;;;;;;;5022053;28;20068;-81
2023/04/13 12:14:26;;;;;;;4.68;0.80;;;;;;;;;;5013819;28;20128;-81
2023/04/13 12:16:52;;;;;;;4.22;1.00;;;;;;;;;;5026912;28;20112;-81
2023/04/13 12:19:30;;;;;;;4.53;0.80;;;;;;;;;;5029588;28;20033;-82
2023/04/13 12:21:55;;;;;;;5.50;0.93;;;;;;;;;;5026491;28;20072;-82
2023/04/13 12:24:43;;;;;;;2.58;0.73;;;;;;;;;;5031951;28;20065;-82
2023/04/13 12:27:08;;;;;;;5.10;0.75;;;;;;;;;;5024622;28;20033;-82
2023/04/13 12:29:50;;;;;;;6.68;1.35;;;;;;;;;;5023577;28;20528;-81
2023/04/13 12:32:16;;;;;;;3.20;0.85;;;;;;;;;;5016903;28;20037;-81
2023/04/13 12:34:42;;;;;;;3.63;0.80;;;;;;;;;;5019190;28;20108;-81
2023/04/13 12:37:20;;;;;;;2.53;0.70;;;;;;;;;;5025352;28;20069;-82
2023/04/13 12:39:46;;;;;;;3.47;1.00;;;;;;;;;;5002778;28;20038;-81
2023/04/13 12:42:12;;;;;;;5.78;0.90;;;;;;;;;;5013502;28;20446;-81
2023/04/13 12:44:50;;;;;;;2.13;1.00;;;;;;;;;;5013524;28;20037;-81
2023/04/13 12:47:16;;;;;;;4.53;0.90;;;;;;;;;;5013290;28;20045;-82
2023/04/13 12:49:41;;;;;;;1.25;0.60;;;;;;;;;;5013504;28;20117;-82
2023/04/13 12:52:19;;;;;;;4.00;1.00;;;;;;;;;;5013186;28;20481;-81
2023/04/13 12:54:44;;;;;;;2.63;0.80;;;;;;;;;;5020511;28;20103;-82
2023/04/13 12:57:10;;;;;;;3.67;1.17;;;;;;;;;;5012070;28;21600;-81
2023/04/13 12:59:48;;;;;;;8.23;1.20;;;;;;;;;;5022579;28;20052;-82
2023/04/13 13:02:14;;;;;;;2.05;0.85;;;;;;;;;;5025497;28;20046;-82
2023/04/13 13:04:40;;;;;;;6.90;1.13;;;;;;;;;;5015101;28;20041;-82
2023/04/13 13:07:18;;;;;;;4.03;1.20;;;;;;;;;;5020650;28;20053;-82
2023/04/13 13:09:44;;;;;;;4.43;1.08;;;;;;;;;;5006257;28;20091;-81
2023/04/13 13:12:09;;;;;;;2.67;0.90;;;;;;;;;;5016933;28;20034;-82
2023/04/13 13:14:48;;;;;;;3.08;1.00;;;;;;;;;;5030602;28;20033;-81
2023/04/13 13:17:13;;;;;;;3.80;0.82;;;;;;;;;;5019694;28;20512;-82
2023/04/13 13:19:39;;;;;;;2.83;0.88;;;;;;;;;;5031542;28;20029;-80
2023/04/13 13:22:17;;;;;;;1.45;0.75;;;;;;;;;;5015658;28;20113;-80
2023/04/13 13:24:42;;;;;;;2.88;0.95;;;;;;;;;;5016374;28;20037;-81
2023/04/13 13:27:09;;;;;;;1.98;0.93;;;;;;;;;;5015495;28;20033;-81
2023/04/13 13:29:47;;;;;;;3.75;0.82;;;;;;;;;;5015885;28;20030;-81
2023/04/13 13:32:13;;;;;;;1.20;0.75;;;;;;;;;;5015611;28;20042;-77
2023/04/13 13:34:38;;;;;;;3.45;0.90;;;;;;;;;;5008599;28;20034;-79
2023/04/13 13:37:16;;;;;;;2.97;0.90;;;;;;;;;;5015406;28;20044;-81
2023/04/13 13:39:41;;;;;;;1.92;0.90;;;;;;;;;;5002314;28;20053;-81
2023/04/13 13:42:07;;;;;;;2.72;0.80;;;;;;;;;;5011657;28;20033;-80
2023/04/13 13:44:45;;;;;;;4.50;0.70;;;;;;;;;;5015081;28;20034;-81
2023/04/13 13:47:10;;;;;;;1.50;0.88;;;;;;;;;;5015609;28;20069;-80
2023/04/13 13:49:36;;;;;;;2.83;1.23;;;;;;;;;;5015591;28;20068;-80
2023/04/13 13:52:14;;;;;;;2.15;0.73;;;;;;;;;;5015299;28;20026;-80
2023/04/13 13:54:40;;;;;;;1.42;0.60;;;;;;;;;;5010856;28;20033;-80
2023/04/13 13:57:05;;;;;;;2.08;0.75;;;;;;;;;;5014262;28;20385;-80
2023/04/13 13:59:44;;;;;;;1.75;0.70;;;;;;;;;;5014842;28;20113;-81
2023/04/13 14:02:10;;;;;;;3.03;0.80;;;;;;;;;;5014781;28;20046;-80
2023/04/13 14:04:35;;;;;;;1.95;0.73;;;;;;;;;;5014310;28;20107;-81
2023/04/13 14:07:14;;;;;;;2.78;0.90;;;;;;;;;;5028902;28;20037;-79
2023/04/13 14:09:39;;;;;;;1.73;0.60;;;;;;;;;;5032723;28;20095;-80
2023/04/13 14:12:05;;;;;;;2.55;0.60;;;;;;;;;;5004621;28;20034;-80
2023/04/13 14:14:44;;;;;;;2.50;0.88;;;;;;;;;;5011873;28;20038;-80
2023/04/13 14:17:09;;;;;;;0.73;0.50;;;;;;;;;;5010655;28;20096;-80
2023/04/13 14:19:35;;;;;;;4.63;1.20;;;;;;;;;;4989628;28;20046;-77
2023/04/13 14:22:13;;;;;;;1.83;0.80;;;;;;;;;;5005003;28;20053;-79
2023/04/13 14:24:38;;;;;;;2.97;1.20;;;;;;;;;;5011730;28;20505;-81
2023/04/13 14:27:04;;;;;;;1.75;0.80;;;;;;;;;;5012830;28;20057;-80
2023/04/13 14:29:43;;;;;;;3.53;1.00;;;;;;;;;;5030818;28;20416;-81
2023/04/13 14:32:08;;;;;;;5.28;1.10;;;;;;;;;;5032064;28;20095;-80
2023/04/13 14:34:34;;;;;;;2.58;1.02;;;;;;;;;;5031784;28;20033;-81
2023/04/13 14:37:12;;;;;;;2.45;1.00;;;;;;;;;;5031609;28;20041;-81
2023/04/13 14:39:38;;;;;;;3.42;1.13;;;;;;;;;;5002941;28;20129;-81
2023/04/13 14:42:03;;;;;;;5.45;0.90;;;;;;;;;;5010842;28;20152;-81
2023/04/13 14:44:42;;;;;;;3.88;1.00;;;;;;;;;;5007134;28;20030;-80
2023/04/13 14:47:09;;;;;;;5.95;1.15;;;;;;;;;;5011042;28;20069;-80
2023/04/13 14:49:35;;;;;;;6.03;1.17;;;;;;;;;;5000530;28;20041;-79
2023/04/13 14:52:14;;;;;;;4.00;1.02;;;;;;;;;;5009006;28;20041;-81
2023/04/13 14:54:40;;;;;;;4.68;0.90;;;;;;;;;;4999843;28;20033;-79
2023/04/13 14:57:05;;;;;;;2.22;0.88;;;;;;;;;;5010032;28;20052;-80
2023/04/13 14:59:43;;;;;;;2.03;0.90;;;;;;;;;;5013359;28;20716;-80
2023/04/13 15:02:10;;;;;;;3.88;0.85;;;;;;;;;;5006111;28;20038;-80
2023/04/13 15:04:36;;;;;;;2.47;0.90;;;;;;;;;;5010019;28;20036;-80